X  Tanca Dades meteorològiques de l'aviació METAR     EDDK Cologne Bonn Airport
Temperatura
10°C Temperatura
5°C Rosada
71% Humitat



Vent
16 KM/H
10 MPH
4 M/S
9 NUS



310°
NO
Condicions actuals

Força ennuvolat Força ennuvolat
Pressió 1015.92 (hPa) - 30 (inHg)
Visibilitat 6 (milla) - 9.7 (km)
Aeroport
Codi aeroport EDDK

Ubicació: Cologne Bonn Airport
Distància: 56 (km)

Metar:
EDDK 271320Z AUTO 31009KT 280V340 9999 BKN027 10/05 Q1016 NOSIG

Temps: 2024-02-27 14:20 CET